createdAt,value
2019-01-28T00:01:50.892Z,2.54
2019-01-28T00:04:16.865Z,2.64
2019-01-28T00:06:42.797Z,2.63
2019-01-28T00:09:08.699Z,2.50
2019-01-28T00:11:34.677Z,2.58
2019-01-28T00:14:00.734Z,2.40
2019-01-28T00:16:29.058Z,2.39
2019-01-28T00:18:54.928Z,2.50
2019-01-28T00:21:20.813Z,2.71
2019-01-28T00:23:46.736Z,2.49
2019-01-28T00:26:12.622Z,2.55
2019-01-28T00:28:38.493Z,2.56
2019-01-28T00:31:08.059Z,2.45
2019-01-28T00:33:33.935Z,2.39
2019-01-28T00:35:59.864Z,2.33
2019-01-28T00:38:25.794Z,2.31
2019-01-28T00:40:51.717Z,2.36
2019-01-28T00:43:17.757Z,2.48
2019-01-28T00:45:43.625Z,2.50
2019-01-28T00:48:09.506Z,2.49
2019-01-28T00:50:35.529Z,2.59
2019-01-28T00:53:01.433Z,2.69
2019-01-28T00:55:27.330Z,2.53
2019-01-28T00:57:53.305Z,2.49
2019-01-28T01:00:21.479Z,2.54
2019-01-28T01:02:47.349Z,2.45
2019-01-28T01:05:13.275Z,2.53
2019-01-28T01:07:39.142Z,2.50
2019-01-28T01:10:08.215Z,2.43
2019-01-28T01:12:34.251Z,2.39
2019-01-28T01:15:00.196Z,2.43
2019-01-28T01:17:26.148Z,2.49
2019-01-28T01:19:52.047Z,2.46
2019-01-28T01:22:17.974Z,2.25
2019-01-28T01:24:43.852Z,2.46
2019-01-28T01:27:09.747Z,2.50
2019-01-28T01:29:35.631Z,2.36
2019-01-28T01:32:01.531Z,2.35
2019-01-28T01:34:27.531Z,2.42
2019-01-28T01:36:53.414Z,2.37
2019-01-28T01:39:19.289Z,2.38
2019-01-28T01:41:45.156Z,2.25
2019-01-28T01:44:11.057Z,2.13
2019-01-28T01:46:37.057Z,2.19
2019-01-28T01:49:02.900Z,2.19
2019-01-28T01:51:28.931Z,2.24
2019-01-28T01:53:54.796Z,2.07
2019-01-28T01:56:20.642Z,2.07
2019-01-28T01:58:46.570Z,2.06
2019-01-28T02:01:12.554Z,2.12
2019-01-28T02:03:38.549Z,2.01
2019-01-28T02:06:04.436Z,2.26
2019-01-28T02:08:30.312Z,2.26
2019-01-28T02:10:56.299Z,2.27
2019-01-28T02:13:22.194Z,2.16
2019-01-28T02:15:48.037Z,2.19
2019-01-28T02:18:14.054Z,2.18
2019-01-28T02:20:39.983Z,2.16
2019-01-28T02:23:05.868Z,2.07
2019-01-28T02:25:31.777Z,2.01
2019-01-28T02:27:57.663Z,1.88
2019-01-28T02:30:23.529Z,1.97
2019-01-28T02:32:49.489Z,1.91
2019-01-28T02:35:15.401Z,1.86
2019-01-28T02:37:41.270Z,1.89
2019-01-28T02:40:13.421Z,1.95
2019-01-28T02:42:39.273Z,1.94
2019-01-28T02:45:07.159Z,1.84
2019-01-28T02:47:33.038Z,1.85
2019-01-28T02:49:58.917Z,1.94
2019-01-28T02:52:24.777Z,1.95
2019-01-28T02:54:50.679Z,1.92
2019-01-28T02:57:16.542Z,2.01
2019-01-28T02:59:42.450Z,2.04
2019-01-28T03:02:08.360Z,1.92
2019-01-28T03:04:34.280Z,1.99
2019-01-28T03:07:00.131Z,1.87
2019-01-28T03:09:26.038Z,1.90
2019-01-28T03:11:51.935Z,1.82
2019-01-28T03:14:17.822Z,1.71
2019-01-28T03:16:43.847Z,1.84
2019-01-28T03:19:09.723Z,1.77
2019-01-28T03:21:35.589Z,1.94
2019-01-28T03:24:01.445Z,1.87
2019-01-28T03:26:27.327Z,2.04
2019-01-28T03:28:53.267Z,2.07
2019-01-28T03:31:19.240Z,2.13
2019-01-28T03:33:48.254Z,2.10
2019-01-28T03:36:14.166Z,2.11
2019-01-28T03:38:40.168Z,1.93
2019-01-28T03:41:06.042Z,2.00
2019-01-28T03:43:32.221Z,2.00
2019-01-28T03:45:58.202Z,2.06
2019-01-28T03:48:24.204Z,1.97
2019-01-28T03:50:50.284Z,1.96
2019-01-28T03:53:16.560Z,1.96
2019-01-28T03:55:42.438Z,1.87
2019-01-28T03:58:08.324Z,1.92
2019-01-28T04:00:34.238Z,1.91
2019-01-28T04:03:00.209Z,1.94
2019-01-28T04:05:26.211Z,2.07
2019-01-28T04:07:52.092Z,1.99
2019-01-28T04:10:20.018Z,2.07
2019-01-28T04:12:45.999Z,2.01
2019-01-28T04:15:14.314Z,2.02
2019-01-28T04:17:40.237Z,2.08
2019-01-28T04:20:09.009Z,2.08
2019-01-28T04:22:34.862Z,2.06
2019-01-28T04:25:00.798Z,2.01
2019-01-28T04:27:26.683Z,2.00
2019-01-28T04:29:52.557Z,2.07
2019-01-28T04:32:18.493Z,2.07
2019-01-28T04:34:44.412Z,1.97
2019-01-28T04:37:10.272Z,2.00
2019-01-28T04:39:36.193Z,2.08
2019-01-28T04:42:02.067Z,2.02
2019-01-28T04:44:27.953Z,1.96
2019-01-28T04:46:53.970Z,1.98
2019-01-28T04:49:19.846Z,2.09
2019-01-28T04:51:45.840Z,2.06
2019-01-28T04:54:11.747Z,1.96
2019-01-28T04:56:37.607Z,2.02
2019-01-28T04:59:03.492Z,2.09
2019-01-28T05:01:29.409Z,2.25
2019-01-28T05:03:55.411Z,2.13
2019-01-28T05:06:21.284Z,2.08
2019-01-28T05:08:47.188Z,2.08
2019-01-28T05:11:13.089Z,2.26
2019-01-28T05:13:38.960Z,2.26
2019-01-28T05:16:04.821Z,2.34
2019-01-28T05:18:30.693Z,2.40
2019-01-28T05:20:56.594Z,2.39
2019-01-28T05:23:22.501Z,2.32
2019-01-28T05:25:48.361Z,2.41
2019-01-28T05:28:14.314Z,2.51
2019-01-28T05:30:40.189Z,2.45
2019-01-28T05:33:06.051Z,2.48
2019-01-28T05:35:31.940Z,2.48
2019-01-28T05:37:57.882Z,2.30
2019-01-28T05:40:23.870Z,2.30
2019-01-28T05:42:49.862Z,2.43
2019-01-28T05:45:17.314Z,2.47
2019-01-28T05:47:43.219Z,2.35
2019-01-28T05:50:10.458Z,2.49
2019-01-28T05:52:36.433Z,2.45
2019-01-28T05:55:02.893Z,2.48
2019-01-28T05:57:28.853Z,2.49
2019-01-28T05:59:54.719Z,2.53
2019-01-28T06:02:20.679Z,2.53
2019-01-28T06:04:46.577Z,2.52
2019-01-28T06:07:13.357Z,2.49
2019-01-28T06:09:39.363Z,2.48
2019-01-28T06:12:05.235Z,2.52
2019-01-28T06:14:31.125Z,2.48
2019-01-28T06:16:56.992Z,2.52
2019-01-28T06:19:22.859Z,2.52
2019-01-28T06:21:48.730Z,2.44
2019-01-28T06:24:14.734Z,2.47
2019-01-28T06:26:40.700Z,2.49
2019-01-28T06:29:06.553Z,2.40
2019-01-28T06:31:32.477Z,2.39
2019-01-28T06:33:58.332Z,2.36
2019-01-28T06:36:24.207Z,1.91
2019-01-28T06:38:50.140Z,1.97
2019-01-28T06:41:16.035Z,1.89
2019-01-28T06:43:41.903Z,2.06
2019-01-28T06:46:07.852Z,1.91
2019-01-28T06:48:33.724Z,1.90
2019-01-28T06:50:59.664Z,1.96
2019-01-28T06:53:25.547Z,2.01
2019-01-28T06:55:51.449Z,1.92
2019-01-28T06:58:17.378Z,1.85
2019-01-28T07:00:43.259Z,2.11
2019-01-28T07:03:09.151Z,2.21
2019-01-28T07:05:35.677Z,2.17
2019-01-28T07:08:01.565Z,2.31
2019-01-28T07:10:27.430Z,2.24
2019-01-28T07:12:53.364Z,2.32
2019-01-28T07:15:20.438Z,2.25
2019-01-28T07:17:46.308Z,2.27
2019-01-28T07:20:15.036Z,1.85
2019-01-28T07:22:40.915Z,2.07
2019-01-28T07:25:06.796Z,2.38
2019-01-28T07:27:32.707Z,2.08
2019-01-28T07:29:58.566Z,2.21
2019-01-28T07:32:24.647Z,2.12
2019-01-28T07:34:50.541Z,2.40
2019-01-28T07:37:16.494Z,2.31
2019-01-28T07:39:42.468Z,2.17
2019-01-28T07:42:08.380Z,2.19
2019-01-28T07:44:34.263Z,2.34
2019-01-28T07:47:00.174Z,2.55
2019-01-28T07:49:26.081Z,2.66
2019-01-28T07:51:51.926Z,2.59
2019-01-28T07:54:17.792Z,2.62
2019-01-28T07:56:43.666Z,2.72
2019-01-28T07:59:09.613Z,2.69
2019-01-28T08:01:35.535Z,3.00
2019-01-28T08:04:01.424Z,2.69
2019-01-28T08:06:27.273Z,2.97
2019-01-28T08:08:53.198Z,2.91
2019-01-28T08:11:19.056Z,3.40
2019-01-28T08:13:44.942Z,3.40
2019-01-28T08:16:10.832Z,3.31
2019-01-28T08:18:36.733Z,3.30
2019-01-28T08:21:02.633Z,4.33
2019-01-28T08:23:28.739Z,3.79
2019-01-28T08:25:55.810Z,3.26
2019-01-28T08:28:21.706Z,3.47
2019-01-28T08:30:47.703Z,3.23
2019-01-28T08:33:13.588Z,3.15
2019-01-28T08:35:39.444Z,3.06
2019-01-28T08:38:05.372Z,3.11
2019-01-28T08:40:34.775Z,3.34
2019-01-28T08:43:00.655Z,3.26
2019-01-28T08:45:26.542Z,3.22
2019-01-28T08:47:52.425Z,3.29
2019-01-28T08:50:20.601Z,3.29
2019-01-28T08:52:46.487Z,3.38
2019-01-28T08:55:15.143Z,3.26
2019-01-28T08:57:41.015Z,3.60
2019-01-28T09:00:13.161Z,3.34
2019-01-28T09:02:39.098Z,3.04
2019-01-28T09:05:06.468Z,3.34
2019-01-28T09:07:32.591Z,3.57
2019-01-28T09:09:58.508Z,3.40
2019-01-28T09:12:24.388Z,3.45
2019-01-28T09:14:50.293Z,3.48
2019-01-28T09:17:16.186Z,3.81
2019-01-28T09:19:42.050Z,3.90
2019-01-28T09:22:07.953Z,3.88
2019-01-28T09:24:33.860Z,4.10
2019-01-28T09:26:59.763Z,4.35
2019-01-28T09:29:25.652Z,3.99
2019-01-28T09:31:51.601Z,3.92
2019-01-28T09:34:17.486Z,3.76
2019-01-28T09:36:43.383Z,3.74
2019-01-28T09:39:09.348Z,3.98
2019-01-28T09:41:38.560Z,3.81
2019-01-28T09:44:08.504Z,4.42
2019-01-28T09:46:34.492Z,4.38
2019-01-28T09:49:00.439Z,4.78
2019-01-28T09:51:32.173Z,4.66
2019-01-28T09:53:58.168Z,4.83
2019-01-28T09:56:24.212Z,4.80
2019-01-28T09:58:50.422Z,4.77
2019-01-28T10:01:16.355Z,5.18
2019-01-28T10:03:42.267Z,5.00
2019-01-28T10:06:08.180Z,4.91
2019-01-28T10:08:34.373Z,4.87
2019-01-28T10:11:00.311Z,5.14
2019-01-28T10:13:26.357Z,5.36
2019-01-28T10:15:52.446Z,5.33
2019-01-28T10:18:18.423Z,5.49
2019-01-28T10:20:45.472Z,5.59
2019-01-28T10:23:11.601Z,5.56
2019-01-28T10:25:37.485Z,5.56
2019-01-28T10:28:03.460Z,5.49
2019-01-28T10:30:32.330Z,5.15
2019-01-28T10:32:58.240Z,4.99
2019-01-28T10:35:25.768Z,4.78
2019-01-28T10:37:51.652Z,5.06
2019-01-28T10:40:23.250Z,5.12
2019-01-28T10:42:49.169Z,5.08
2019-01-28T10:45:15.348Z,5.01
2019-01-28T10:47:41.221Z,4.92
2019-01-28T10:50:13.455Z,4.90
2019-01-28T10:52:39.352Z,5.02
2019-01-28T10:55:06.960Z,4.67
2019-01-28T10:57:36.145Z,4.48
2019-01-28T11:00:11.401Z,4.67
2019-01-28T11:02:33.914Z,4.65
2019-01-28T11:04:59.823Z,4.15
2019-01-28T11:07:25.693Z,4.66
2019-01-28T11:09:51.679Z,4.94
2019-01-28T11:12:17.783Z,4.99
2019-01-28T11:14:43.659Z,4.58
2019-01-28T11:17:09.515Z,5.23
2019-01-28T11:19:35.546Z,5.63
2019-01-28T11:22:01.407Z,5.87
2019-01-28T11:24:27.267Z,5.62
2019-01-28T11:26:53.218Z,6.00
2019-01-28T11:29:19.257Z,5.04
2019-01-28T11:31:45.150Z,4.81
2019-01-28T11:34:11.049Z,5.18
2019-01-28T11:36:37.037Z,6.77
2019-01-28T11:39:04.658Z,5.28
2019-01-28T11:41:30.564Z,5.90
2019-01-28T11:43:56.581Z,6.76
2019-01-28T11:46:22.437Z,5.82
2019-01-28T11:48:48.385Z,6.30
2019-01-28T11:51:14.288Z,7.00
2019-01-28T11:53:40.156Z,6.71
2019-01-28T11:56:06.178Z,6.49
2019-01-28T11:58:32.036Z,6.37
2019-01-28T12:01:01.650Z,5.92
2019-01-28T12:03:27.540Z,6.31
2019-01-28T12:05:53.409Z,5.69
2019-01-28T12:08:19.422Z,5.65
2019-01-28T12:10:45.769Z,5.59
2019-01-28T12:13:11.625Z,5.93
2019-01-28T12:15:37.477Z,6.14
2019-01-28T12:18:05.892Z,6.34
2019-01-28T12:20:31.920Z,6.87
2019-01-28T12:22:57.956Z,8.76
2019-01-28T12:25:23.813Z,8.42
2019-01-28T12:27:49.684Z,9.43
2019-01-28T12:30:19.424Z,8.16
2019-01-28T12:32:45.267Z,7.66
2019-01-28T12:35:19.752Z,7.33
2019-01-28T12:37:45.643Z,7.11
2019-01-28T12:40:14.886Z,6.85
2019-01-28T12:42:40.784Z,6.67
2019-01-28T12:45:14.164Z,7.06
2019-01-28T12:47:40.195Z,6.85
2019-01-28T12:50:11.179Z,6.99
2019-01-28T12:52:37.045Z,6.81
2019-01-28T12:55:06.203Z,6.99
2019-01-28T12:57:32.102Z,7.29
2019-01-28T12:59:57.977Z,7.35
2019-01-28T13:02:23.934Z,7.81
2019-01-28T13:04:49.790Z,11.04
2019-01-28T13:07:15.673Z,11.53
2019-01-28T13:09:41.666Z,12.57
2019-01-28T13:12:07.649Z,15.34
2019-01-28T13:14:34.183Z,14.11
2019-01-28T13:17:00.210Z,14.73
2019-01-28T13:19:30.213Z,14.37
2019-01-28T13:21:53.884Z,13.45
2019-01-28T13:24:19.753Z,12.90
2019-01-28T13:26:45.678Z,13.70
2019-01-28T13:29:11.538Z,12.73
2019-01-28T13:31:38.126Z,10.70
2019-01-28T13:34:04.226Z,8.97
2019-01-28T13:36:30.094Z,7.95
2019-01-28T13:38:55.937Z,7.63
2019-01-28T13:41:21.896Z,7.42
2019-01-28T13:43:47.809Z,7.81
2019-01-28T13:46:13.858Z,7.26
2019-01-28T13:48:39.720Z,7.59
2019-01-28T13:51:06.493Z,7.15
2019-01-28T13:53:32.588Z,7.17
2019-01-28T13:55:58.432Z,7.57
2019-01-28T13:58:24.419Z,8.11
2019-01-28T14:00:54.467Z,9.43
2019-01-28T14:03:20.349Z,8.65
2019-01-28T14:05:46.205Z,8.06
2019-01-28T14:08:12.092Z,8.75
2019-01-28T14:10:38.026Z,12.57
2019-01-28T14:13:03.900Z,11.37
2019-01-28T14:15:32.927Z,7.77
2019-01-28T14:17:58.934Z,7.27
2019-01-28T14:20:27.018Z,7.29
2019-01-28T14:22:52.873Z,6.98
2019-01-28T14:25:18.772Z,6.25
2019-01-28T14:27:49.545Z,6.63
2019-01-28T14:30:15.816Z,7.06
2019-01-28T14:32:41.779Z,7.30
2019-01-28T14:35:07.644Z,7.29
2019-01-28T14:37:33.689Z,6.95
2019-01-28T14:39:59.575Z,7.38
2019-01-28T14:42:25.487Z,6.95
2019-01-28T14:44:51.362Z,7.33
2019-01-28T14:47:17.409Z,6.81
2019-01-28T14:49:43.274Z,6.94
2019-01-28T14:52:09.303Z,7.90
2019-01-28T14:54:35.191Z,8.68
2019-01-28T14:57:01.092Z,9.69
2019-01-28T14:59:27.090Z,7.66
2019-01-28T15:01:53.044Z,8.13
2019-01-28T15:04:18.886Z,7.92
2019-01-28T15:06:49.482Z,7.83
2019-01-28T15:09:21.424Z,7.39
2019-01-28T15:11:47.257Z,6.87
2019-01-28T15:14:13.155Z,6.68
2019-01-28T15:16:38.998Z,6.80
2019-01-28T15:19:04.974Z,6.50
2019-01-28T15:21:30.867Z,6.47
2019-01-28T15:23:56.740Z,6.07
2019-01-28T15:26:22.665Z,6.27
2019-01-28T15:28:48.731Z,6.38
2019-01-28T15:31:14.584Z,6.17
2019-01-28T15:33:40.499Z,6.11
2019-01-28T15:36:06.394Z,5.89
2019-01-28T15:38:32.350Z,5.89
2019-01-28T15:40:58.246Z,5.88
2019-01-28T15:43:24.130Z,5.86
2019-01-28T15:45:53.528Z,5.77
2019-01-28T15:48:19.450Z,5.64
2019-01-28T15:50:45.337Z,5.55
2019-01-28T15:53:13.184Z,5.55
2019-01-28T15:55:39.769Z,5.58
2019-01-28T15:58:08.436Z,5.40
2019-01-28T16:00:39.796Z,5.43
2019-01-28T16:03:07.604Z,5.31
2019-01-28T16:05:36.800Z,5.22
2019-01-28T16:08:03.587Z,5.10
2019-01-28T16:10:29.486Z,5.11
2019-01-28T16:12:55.523Z,5.11
2019-01-28T16:15:28.682Z,5.02
2019-01-28T16:17:54.715Z,4.89
2019-01-28T16:20:20.756Z,4.89
2019-01-28T16:22:46.843Z,4.83
2019-01-28T16:25:12.729Z,4.83
2019-01-28T16:27:38.742Z,4.86
2019-01-28T16:30:28.183Z,4.87
2019-01-28T16:32:56.013Z,4.73
2019-01-28T16:35:22.058Z,4.72
2019-01-28T16:37:49.267Z,4.70
2019-01-28T16:40:17.480Z,4.65
2019-01-28T16:42:43.510Z,4.61
2019-01-28T16:45:12.209Z,4.64
2019-01-28T16:47:38.169Z,4.62
2019-01-28T16:50:07.634Z,4.40
2019-01-28T16:52:33.548Z,4.41
2019-01-28T16:54:59.406Z,4.16
2019-01-28T16:57:25.336Z,4.52
2019-01-28T16:59:51.225Z,4.27
2019-01-28T17:02:17.090Z,4.09
2019-01-28T17:04:42.978Z,4.11
2019-01-28T17:07:08.904Z,4.19
2019-01-28T17:09:34.848Z,3.96
2019-01-28T17:12:00.903Z,3.73
2019-01-28T17:14:26.764Z,4.32
2019-01-28T17:16:52.636Z,4.00
2019-01-28T17:19:18.553Z,4.15
2019-01-28T17:21:44.399Z,4.05
2019-01-28T17:24:10.288Z,3.91
2019-01-28T17:26:36.193Z,3.79
2019-01-28T17:29:02.106Z,3.74
2019-01-28T17:31:28.006Z,3.49
2019-01-28T17:33:53.893Z,3.39
2019-01-28T17:36:19.872Z,3.73
2019-01-28T17:38:45.901Z,3.59
2019-01-28T17:41:11.896Z,3.59
2019-01-28T17:43:37.817Z,3.48
2019-01-28T17:46:03.681Z,3.28
2019-01-28T17:48:29.619Z,3.23
2019-01-28T17:50:55.569Z,3.09
2019-01-28T17:53:21.490Z,3.19
2019-01-28T17:55:47.397Z,3.12
2019-01-28T17:58:13.302Z,3.11
2019-01-28T18:00:50.143Z,3.08
2019-01-28T18:03:16.376Z,3.04
2019-01-28T18:05:42.340Z,3.04
2019-01-28T18:08:08.243Z,2.85
2019-01-28T18:10:34.100Z,2.85
2019-01-28T18:13:00.000Z,2.91
2019-01-28T18:15:26.752Z,2.97
2019-01-28T18:17:52.680Z,2.87
2019-01-28T18:20:18.568Z,2.77
2019-01-28T18:22:45.632Z,2.72
2019-01-28T18:25:13.920Z,2.76
2019-01-28T18:27:39.786Z,2.76
2019-01-28T18:30:09.504Z,2.79
2019-01-28T18:32:35.393Z,2.54
2019-01-28T18:35:01.398Z,2.54
2019-01-28T18:37:27.478Z,2.42
2019-01-28T18:39:53.347Z,2.45
2019-01-28T18:42:19.230Z,2.42
2019-01-28T18:44:45.103Z,2.40
2019-01-28T18:47:11.088Z,2.34
2019-01-28T18:49:40.274Z,2.26
2019-01-28T18:52:06.136Z,2.34
2019-01-28T18:54:32.060Z,2.36
2019-01-28T18:56:57.962Z,2.27
2019-01-28T18:59:23.815Z,2.18
2019-01-28T19:01:49.699Z,2.21
2019-01-28T19:04:15.587Z,2.04
2019-01-28T19:06:59.996Z,2.17
2019-01-28T19:09:27.780Z,2.17
2019-01-28T19:11:58.303Z,2.17
2019-01-28T19:14:32.222Z,2.16
2019-01-28T19:17:03.232Z,2.22
2019-01-28T19:19:31.017Z,2.14
2019-01-28T19:21:58.941Z,2.13
2019-01-28T19:24:24.830Z,2.13
2019-01-28T19:26:50.836Z,2.01
2019-01-28T19:29:16.814Z,1.98
2019-01-28T19:31:42.700Z,2.00
2019-01-28T19:34:08.551Z,1.91
2019-01-28T19:36:34.545Z,1.82
2019-01-28T19:39:00.446Z,1.84
2019-01-28T19:41:26.330Z,1.79
2019-01-28T19:43:52.203Z,1.80
2019-01-28T19:46:18.097Z,1.93
2019-01-28T19:48:44.001Z,2.16
2019-01-28T19:51:15.570Z,2.13
2019-01-28T19:53:37.722Z,2.24
2019-01-28T19:56:03.640Z,2.13
2019-01-28T19:58:29.611Z,2.13
2019-01-28T20:00:55.462Z,2.14
2019-01-28T20:03:21.384Z,2.07
2019-01-28T20:05:47.357Z,2.00
2019-01-28T20:08:15.033Z,1.92
2019-01-28T20:10:41.172Z,1.89
2019-01-28T20:13:07.058Z,1.87
2019-01-28T20:15:33.099Z,1.81
2019-01-28T20:17:58.989Z,1.77
2019-01-28T20:20:24.868Z,1.65
2019-01-28T20:22:51.728Z,1.58
2019-01-28T20:25:18.151Z,1.55
2019-01-28T20:27:44.142Z,1.52
2019-01-28T20:30:16.818Z,1.53
2019-01-28T20:32:42.728Z,1.50
2019-01-28T20:35:10.754Z,1.49
2019-01-28T20:37:36.671Z,1.48
2019-01-28T20:40:05.970Z,1.34
2019-01-28T20:42:31.908Z,1.33
2019-01-28T20:44:57.827Z,1.34
2019-01-28T20:47:23.801Z,1.35
2019-01-28T20:49:49.702Z,1.28
2019-01-28T20:52:15.646Z,1.24
2019-01-28T20:54:41.564Z,1.29
2019-01-28T20:57:07.506Z,1.20
2019-01-28T20:59:33.389Z,1.18
2019-01-28T21:01:59.256Z,1.09
2019-01-28T21:04:25.178Z,1.10
2019-01-28T21:06:51.100Z,1.26
2019-01-28T21:09:16.993Z,1.18
2019-01-28T21:11:42.850Z,1.16
2019-01-28T21:14:08.739Z,1.16
2019-01-28T21:16:34.761Z,1.15
2019-01-28T21:19:00.616Z,1.09
2019-01-28T21:21:26.473Z,1.09
2019-01-28T21:23:52.387Z,1.15
2019-01-28T21:26:18.317Z,1.27
2019-01-28T21:28:44.238Z,1.27
2019-01-28T21:31:10.125Z,1.14
2019-01-28T21:33:36.100Z,1.17
2019-01-28T21:36:15.904Z,1.22
2019-01-28T21:38:43.672Z,1.16
2019-01-28T21:41:09.571Z,1.18
2019-01-28T21:43:35.535Z,1.10
2019-01-28T21:46:01.475Z,0.95
2019-01-28T21:48:27.332Z,1.03
2019-01-28T21:50:53.713Z,1.06
2019-01-28T21:53:19.626Z,1.13
2019-01-28T21:55:45.540Z,1.00
2019-01-28T21:58:11.396Z,0.95
2019-01-28T22:00:37.292Z,1.01
2019-01-28T22:03:03.533Z,0.96
2019-01-28T22:05:29.382Z,0.97
2019-01-28T22:07:55.368Z,0.86
2019-01-28T22:10:21.297Z,0.82
2019-01-28T22:12:47.323Z,0.88
2019-01-28T22:15:16.931Z,0.83
2019-01-28T22:17:42.816Z,0.82
2019-01-28T22:20:10.871Z,0.77
2019-01-28T22:22:36.758Z,0.83
2019-01-28T22:25:11.633Z,0.79
2019-01-28T22:27:37.515Z,0.78
2019-01-28T22:30:07.199Z,0.70
2019-01-28T22:32:33.115Z,0.81
2019-01-28T22:34:58.980Z,0.69
2019-01-28T22:37:24.857Z,0.67
2019-01-28T22:39:50.859Z,0.62
2019-01-28T22:42:21.409Z,0.60
2019-01-28T22:44:44.490Z,0.56
2019-01-28T22:47:10.376Z,0.59
2019-01-28T22:49:36.571Z,0.61
2019-01-28T22:52:07.651Z,0.62
2019-01-28T22:54:30.343Z,0.63
2019-01-28T22:56:56.225Z,0.56
2019-01-28T22:59:22.162Z,0.58
2019-01-28T23:01:48.180Z,0.56
2019-01-28T23:04:14.046Z,0.57
2019-01-28T23:06:39.957Z,0.57
2019-01-28T23:09:07.855Z,0.61
2019-01-28T23:11:33.732Z,0.76
2019-01-28T23:13:59.787Z,0.61
2019-01-28T23:16:25.638Z,0.61
2019-01-28T23:18:51.532Z,0.62
2019-01-28T23:21:17.381Z,0.68
2019-01-28T23:23:43.271Z,0.68
2019-01-28T23:26:09.198Z,0.72
2019-01-28T23:28:35.048Z,0.68
2019-01-28T23:31:01.067Z,0.62
2019-01-28T23:33:26.937Z,0.65
2019-01-28T23:35:52.783Z,0.59
2019-01-28T23:38:18.693Z,0.54
2019-01-28T23:40:44.636Z,0.52
2019-01-28T23:43:10.476Z,0.56
2019-01-28T23:45:36.350Z,0.48
2019-01-28T23:48:02.307Z,0.42
2019-01-28T23:50:28.155Z,0.36
2019-01-28T23:52:54.048Z,0.34
2019-01-28T23:55:23.650Z,0.30
2019-01-28T23:57:56.637Z,0.35
